sensor_id;sensor_type;location;lat;lon;timestamp;P1;durP1;ratioP1;P2;durP2;ratioP2
41799;SDS011;27468;47.460;19.034;2023-04-24T00:00:12;5.35;;;2.72;;
41799;SDS011;27468;47.460;19.034;2023-04-24T00:02:40;6.43;;;3.20;;
41799;SDS011;27468;47.460;19.034;2023-04-24T00:05:09;8.68;;;2.78;;
41799;SDS011;27468;47.460;19.034;2023-04-24T00:07:35;4.13;;;2.92;;
41799;SDS011;27468;47.460;19.034;2023-04-24T00:10:00;3.65;;;2.72;;
41799;SDS011;27468;47.460;19.034;2023-04-24T00:12:26;4.53;;;2.97;;
41799;SDS011;27468;47.460;19.034;2023-04-24T00:14:52;5.45;;;2.90;;
41799;SDS011;27468;47.460;19.034;2023-04-24T00:17:18;3.70;;;2.67;;
41799;SDS011;27468;47.460;19.034;2023-04-24T00:19:45;4.32;;;3.00;;
41799;SDS011;27468;47.460;19.034;2023-04-24T00:22:11;4.43;;;3.00;;
41799;SDS011;27468;47.460;19.034;2023-04-24T00:24:38;3.35;;;2.42;;
41799;SDS011;27468;47.460;19.034;2023-04-24T00:27:04;4.20;;;3.50;;
41799;SDS011;27468;47.460;19.034;2023-04-24T00:29:29;4.10;;;2.58;;
41799;SDS011;27468;47.460;19.034;2023-04-24T00:31:55;4.13;;;2.83;;
41799;SDS011;27468;47.460;19.034;2023-04-24T00:34:20;3.92;;;2.63;;
41799;SDS011;27468;47.460;19.034;2023-04-24T00:36:46;4.72;;;2.53;;
41799;SDS011;27468;47.460;19.034;2023-04-24T00:39:11;5.10;;;3.72;;
41799;SDS011;27468;47.460;19.034;2023-04-24T00:41:37;7.60;;;3.78;;
41799;SDS011;27468;47.460;19.034;2023-04-24T00:44:02;5.68;;;3.30;;
41799;SDS011;27468;47.460;19.034;2023-04-24T00:46:28;4.47;;;2.70;;
41799;SDS011;27468;47.460;19.034;2023-04-24T00:48:53;5.38;;;2.95;;
41799;SDS011;27468;47.460;19.034;2023-04-24T00:51:21;5.07;;;3.05;;
41799;SDS011;27468;47.460;19.034;2023-04-24T00:53:46;5.20;;;3.17;;
41799;SDS011;27468;47.460;19.034;2023-04-24T00:56:11;4.88;;;3.13;;
41799;SDS011;27468;47.460;19.034;2023-04-24T00:58:37;4.57;;;2.90;;
41799;SDS011;27468;47.460;19.034;2023-04-24T01:01:03;4.85;;;3.25;;
41799;SDS011;27468;47.460;19.034;2023-04-24T01:03:31;5.57;;;3.35;;
41799;SDS011;27468;47.460;19.034;2023-04-24T01:05:58;5.70;;;3.28;;
41799;SDS011;27468;47.460;19.034;2023-04-24T01:08:24;7.15;;;3.30;;
41799;SDS011;27468;47.460;19.034;2023-04-24T01:10:51;4.80;;;3.13;;
41799;SDS011;27468;47.460;19.034;2023-04-24T01:13:18;4.25;;;3.03;;
41799;SDS011;27468;47.460;19.034;2023-04-24T01:15:46;4.03;;;2.78;;
41799;SDS011;27468;47.460;19.034;2023-04-24T01:18:12;4.65;;;3.22;;
41799;SDS011;27468;47.460;19.034;2023-04-24T01:20:42;5.57;;;3.28;;
41799;SDS011;27468;47.460;19.034;2023-04-24T01:23:10;5.68;;;3.15;;
41799;SDS011;27468;47.460;19.034;2023-04-24T01:25:36;4.45;;;3.22;;
41799;SDS011;27468;47.460;19.034;2023-04-24T01:28:02;3.80;;;2.80;;
41799;SDS011;27468;47.460;19.034;2023-04-24T01:30:27;3.42;;;2.70;;
41799;SDS011;27468;47.460;19.034;2023-04-24T01:32:55;3.28;;;2.83;;
41799;SDS011;27468;47.460;19.034;2023-04-24T01:35:21;4.53;;;3.10;;
41799;SDS011;27468;47.460;19.034;2023-04-24T01:37:46;3.42;;;3.00;;
41799;SDS011;27468;47.460;19.034;2023-04-24T01:40:12;4.80;;;3.13;;
41799;SDS011;27468;47.460;19.034;2023-04-24T01:42:37;3.92;;;2.80;;
41799;SDS011;27468;47.460;19.034;2023-04-24T01:45:03;5.13;;;3.25;;
41799;SDS011;27468;47.460;19.034;2023-04-24T01:47:32;5.00;;;3.33;;
41799;SDS011;27468;47.460;19.034;2023-04-24T01:49:58;4.93;;;3.17;;
41799;SDS011;27468;47.460;19.034;2023-04-24T01:52:23;6.22;;;3.67;;
41799;SDS011;27468;47.460;19.034;2023-04-24T01:54:49;5.30;;;3.53;;
41799;SDS011;27468;47.460;19.034;2023-04-24T01:57:15;4.55;;;3.22;;
41799;SDS011;27468;47.460;19.034;2023-04-24T01:59:41;6.50;;;4.45;;
41799;SDS011;27468;47.460;19.034;2023-04-24T02:02:07;5.47;;;3.67;;
41799;SDS011;27468;47.460;19.034;2023-04-24T02:04:32;5.15;;;3.70;;
41799;SDS011;27468;47.460;19.034;2023-04-24T02:06:57;5.38;;;3.28;;
41799;SDS011;27468;47.460;19.034;2023-04-24T02:09:23;4.97;;;3.33;;
41799;SDS011;27468;47.460;19.034;2023-04-24T02:11:48;6.45;;;3.50;;
41799;SDS011;27468;47.460;19.034;2023-04-24T02:14:14;4.47;;;3.28;;
41799;SDS011;27468;47.460;19.034;2023-04-24T02:16:39;5.68;;;3.70;;
41799;SDS011;27468;47.460;19.034;2023-04-24T02:19:05;5.30;;;3.38;;
41799;SDS011;27468;47.460;19.034;2023-04-24T02:21:30;4.40;;;3.30;;
41799;SDS011;27468;47.460;19.034;2023-04-24T02:23:57;5.13;;;3.53;;
41799;SDS011;27468;47.460;19.034;2023-04-24T02:26:22;6.55;;;3.78;;
41799;SDS011;27468;47.460;19.034;2023-04-24T02:28:48;5.60;;;3.65;;
41799;SDS011;27468;47.460;19.034;2023-04-24T02:31:13;5.53;;;3.33;;
41799;SDS011;27468;47.460;19.034;2023-04-24T02:33:39;5.05;;;3.92;;
41799;SDS011;27468;47.460;19.034;2023-04-24T02:36:04;6.38;;;3.95;;
41799;SDS011;27468;47.460;19.034;2023-04-24T02:38:30;6.72;;;3.90;;
41799;SDS011;27468;47.460;19.034;2023-04-24T02:40:55;6.70;;;3.60;;
41799;SDS011;27468;47.460;19.034;2023-04-24T02:43:21;6.60;;;3.67;;
41799;SDS011;27468;47.460;19.034;2023-04-24T02:45:46;5.65;;;3.70;;
41799;SDS011;27468;47.460;19.034;2023-04-24T02:48:11;7.20;;;3.63;;
41799;SDS011;27468;47.460;19.034;2023-04-24T02:50:37;6.38;;;3.65;;
41799;SDS011;27468;47.460;19.034;2023-04-24T02:53:03;5.15;;;3.40;;
41799;SDS011;27468;47.460;19.034;2023-04-24T02:55:29;4.18;;;3.00;;
41799;SDS011;27468;47.460;19.034;2023-04-24T02:57:55;7.05;;;4.03;;
41799;SDS011;27468;47.460;19.034;2023-04-24T03:00:21;7.10;;;3.83;;
41799;SDS011;27468;47.460;19.034;2023-04-24T03:02:46;6.13;;;4.13;;
41799;SDS011;27468;47.460;19.034;2023-04-24T03:05:12;7.28;;;4.22;;
41799;SDS011;27468;47.460;19.034;2023-04-24T03:07:37;5.82;;;4.00;;
41799;SDS011;27468;47.460;19.034;2023-04-24T03:10:03;7.03;;;4.00;;
41799;SDS011;27468;47.460;19.034;2023-04-24T03:12:31;5.68;;;3.90;;
41799;SDS011;27468;47.460;19.034;2023-04-24T03:14:56;5.28;;;3.17;;
41799;SDS011;27468;47.460;19.034;2023-04-24T03:17:22;5.47;;;3.72;;
41799;SDS011;27468;47.460;19.034;2023-04-24T03:19:47;5.15;;;3.60;;
41799;SDS011;27468;47.460;19.034;2023-04-24T03:22:12;8.05;;;3.92;;
41799;SDS011;27468;47.460;19.034;2023-04-24T03:24:38;5.57;;;3.42;;
41799;SDS011;27468;47.460;19.034;2023-04-24T03:27:04;4.50;;;3.47;;
41799;SDS011;27468;47.460;19.034;2023-04-24T03:29:29;5.95;;;4.00;;
41799;SDS011;27468;47.460;19.034;2023-04-24T03:31:55;6.35;;;3.92;;
41799;SDS011;27468;47.460;19.034;2023-04-24T03:34:20;4.07;;;3.38;;
41799;SDS011;27468;47.460;19.034;2023-04-24T03:36:45;4.78;;;3.42;;
41799;SDS011;27468;47.460;19.034;2023-04-24T03:39:14;6.60;;;3.38;;
41799;SDS011;27468;47.460;19.034;2023-04-24T03:41:39;6.57;;;4.03;;
41799;SDS011;27468;47.460;19.034;2023-04-24T03:44:05;4.63;;;3.47;;
41799;SDS011;27468;47.460;19.034;2023-04-24T03:46:30;5.05;;;3.35;;
41799;SDS011;27468;47.460;19.034;2023-04-24T03:48:56;6.22;;;3.40;;
41799;SDS011;27468;47.460;19.034;2023-04-24T03:51:21;7.07;;;4.03;;
41799;SDS011;27468;47.460;19.034;2023-04-24T03:53:47;4.82;;;3.35;;
41799;SDS011;27468;47.460;19.034;2023-04-24T03:56:13;6.22;;;3.47;;
41799;SDS011;27468;47.460;19.034;2023-04-24T03:58:39;4.40;;;3.40;;
41799;SDS011;27468;47.460;19.034;2023-04-24T04:01:04;4.10;;;2.70;;
41799;SDS011;27468;47.460;19.034;2023-04-24T04:03:30;4.72;;;3.10;;
41799;SDS011;27468;47.460;19.034;2023-04-24T04:05:56;5.55;;;3.60;;
41799;SDS011;27468;47.460;19.034;2023-04-24T04:08:21;5.15;;;3.75;;
41799;SDS011;27468;47.460;19.034;2023-04-24T04:10:46;5.63;;;3.40;;
41799;SDS011;27468;47.460;19.034;2023-04-24T04:13:12;4.57;;;3.13;;
41799;SDS011;27468;47.460;19.034;2023-04-24T04:15:37;5.35;;;3.00;;
41799;SDS011;27468;47.460;19.034;2023-04-24T04:18:03;5.28;;;3.35;;
41799;SDS011;27468;47.460;19.034;2023-04-24T04:20:28;4.85;;;2.88;;
41799;SDS011;27468;47.460;19.034;2023-04-24T04:22:54;5.18;;;3.55;;
41799;SDS011;27468;47.460;19.034;2023-04-24T04:25:19;3.95;;;2.85;;
41799;SDS011;27468;47.460;19.034;2023-04-24T04:27:45;4.60;;;3.40;;
41799;SDS011;27468;47.460;19.034;2023-04-24T04:30:12;7.43;;;3.40;;
41799;SDS011;27468;47.460;19.034;2023-04-24T04:32:38;5.93;;;3.78;;
41799;SDS011;27468;47.460;19.034;2023-04-24T04:35:04;5.78;;;3.22;;
41799;SDS011;27468;47.460;19.034;2023-04-24T04:37:30;6.32;;;3.33;;
41799;SDS011;27468;47.460;19.034;2023-04-24T04:39:56;5.32;;;3.40;;
41799;SDS011;27468;47.460;19.034;2023-04-24T04:42:23;4.65;;;3.17;;
41799;SDS011;27468;47.460;19.034;2023-04-24T04:44:49;4.07;;;3.28;;
41799;SDS011;27468;47.460;19.034;2023-04-24T04:47:15;5.40;;;3.20;;
41799;SDS011;27468;47.460;19.034;2023-04-24T04:49:42;7.63;;;4.05;;
41799;SDS011;27468;47.460;19.034;2023-04-24T04:52:08;5.53;;;3.80;;
41799;SDS011;27468;47.460;19.034;2023-04-24T04:54:33;4.40;;;3.13;;
41799;SDS011;27468;47.460;19.034;2023-04-24T04:56:59;5.85;;;3.25;;
41799;SDS011;27468;47.460;19.034;2023-04-24T04:59:26;5.47;;;3.63;;
41799;SDS011;27468;47.460;19.034;2023-04-24T05:01:51;6.30;;;3.28;;
41799;SDS011;27468;47.460;19.034;2023-04-24T05:04:17;8.30;;;3.83;;
41799;SDS011;27468;47.460;19.034;2023-04-24T05:06:43;4.88;;;3.38;;
41799;SDS011;27468;47.460;19.034;2023-04-24T05:09:08;6.13;;;3.25;;
41799;SDS011;27468;47.460;19.034;2023-04-24T05:11:34;6.45;;;3.88;;
41799;SDS011;27468;47.460;19.034;2023-04-24T05:14:00;5.63;;;3.67;;
41799;SDS011;27468;47.460;19.034;2023-04-24T05:16:25;4.93;;;3.50;;
41799;SDS011;27468;47.460;19.034;2023-04-24T05:18:51;4.05;;;3.15;;
41799;SDS011;27468;47.460;19.034;2023-04-24T05:21:16;5.38;;;3.50;;
41799;SDS011;27468;47.460;19.034;2023-04-24T05:23:42;5.63;;;3.00;;
41799;SDS011;27468;47.460;19.034;2023-04-24T05:26:07;5.55;;;3.25;;
41799;SDS011;27468;47.460;19.034;2023-04-24T05:28:33;5.97;;;3.55;;
41799;SDS011;27468;47.460;19.034;2023-04-24T05:30:58;4.75;;;3.00;;
41799;SDS011;27468;47.460;19.034;2023-04-24T05:33:24;4.68;;;3.05;;
41799;SDS011;27468;47.460;19.034;2023-04-24T05:35:50;4.38;;;3.20;;
41799;SDS011;27468;47.460;19.034;2023-04-24T05:38:16;5.60;;;2.85;;
41799;SDS011;27468;47.460;19.034;2023-04-24T05:40:45;5.70;;;3.10;;
41799;SDS011;27468;47.460;19.034;2023-04-24T05:43:11;4.75;;;2.90;;
41799;SDS011;27468;47.460;19.034;2023-04-24T05:45:37;4.75;;;3.10;;
41799;SDS011;27468;47.460;19.034;2023-04-24T05:48:03;6.10;;;3.50;;
41799;SDS011;27468;47.460;19.034;2023-04-24T05:50:29;5.72;;;3.75;;
41799;SDS011;27468;47.460;19.034;2023-04-24T05:52:54;6.00;;;3.25;;
41799;SDS011;27468;47.460;19.034;2023-04-24T05:55:21;4.88;;;3.50;;
41799;SDS011;27468;47.460;19.034;2023-04-24T05:57:46;4.57;;;3.22;;
41799;SDS011;27468;47.460;19.034;2023-04-24T06:00:12;4.28;;;3.05;;
41799;SDS011;27468;47.460;19.034;2023-04-24T06:02:38;5.35;;;3.40;;
41799;SDS011;27468;47.460;19.034;2023-04-24T06:05:05;5.45;;;3.38;;
41799;SDS011;27468;47.460;19.034;2023-04-24T06:07:30;5.28;;;3.75;;
41799;SDS011;27468;47.460;19.034;2023-04-24T06:09:56;4.47;;;3.35;;
41799;SDS011;27468;47.460;19.034;2023-04-24T06:12:22;5.95;;;3.25;;
41799;SDS011;27468;47.460;19.034;2023-04-24T06:14:47;5.57;;;3.28;;
41799;SDS011;27468;47.460;19.034;2023-04-24T06:17:13;4.03;;;2.83;;
41799;SDS011;27468;47.460;19.034;2023-04-24T06:19:39;4.13;;;2.90;;
41799;SDS011;27468;47.460;19.034;2023-04-24T06:22:05;3.63;;;3.00;;
41799;SDS011;27468;47.460;19.034;2023-04-24T06:24:30;5.30;;;3.60;;
41799;SDS011;27468;47.460;19.034;2023-04-24T06:26:56;5.28;;;3.50;;
41799;SDS011;27468;47.460;19.034;2023-04-24T06:29:23;5.35;;;3.53;;
41799;SDS011;27468;47.460;19.034;2023-04-24T06:31:49;5.13;;;3.70;;
41799;SDS011;27468;47.460;19.034;2023-04-24T06:34:14;5.13;;;3.22;;
41799;SDS011;27468;47.460;19.034;2023-04-24T06:36:40;5.68;;;3.95;;
41799;SDS011;27468;47.460;19.034;2023-04-24T06:39:05;4.90;;;3.22;;
41799;SDS011;27468;47.460;19.034;2023-04-24T06:41:31;5.68;;;3.22;;
41799;SDS011;27468;47.460;19.034;2023-04-24T06:43:57;6.38;;;3.92;;
41799;SDS011;27468;47.460;19.034;2023-04-24T06:46:22;5.45;;;3.30;;
41799;SDS011;27468;47.460;19.034;2023-04-24T06:48:50;5.65;;;3.40;;
41799;SDS011;27468;47.460;19.034;2023-04-24T06:51:22;5.60;;;3.87;;
41799;SDS011;27468;47.460;19.034;2023-04-24T06:53:48;5.80;;;3.85;;
41799;SDS011;27468;47.460;19.034;2023-04-24T06:56:14;5.50;;;3.25;;
41799;SDS011;27468;47.460;19.034;2023-04-24T06:58:40;4.90;;;3.47;;
41799;SDS011;27468;47.460;19.034;2023-04-24T07:01:05;5.10;;;3.88;;
41799;SDS011;27468;47.460;19.034;2023-04-24T07:03:31;5.13;;;3.15;;
41799;SDS011;27468;47.460;19.034;2023-04-24T07:05:56;4.25;;;2.95;;
41799;SDS011;27468;47.460;19.034;2023-04-24T07:08:23;5.80;;;3.30;;
41799;SDS011;27468;47.460;19.034;2023-04-24T07:10:49;6.03;;;3.25;;
41799;SDS011;27468;47.460;19.034;2023-04-24T07:13:16;4.90;;;3.30;;
41799;SDS011;27468;47.460;19.034;2023-04-24T07:15:42;5.47;;;3.63;;
41799;SDS011;27468;47.460;19.034;2023-04-24T07:18:07;5.10;;;3.25;;
41799;SDS011;27468;47.460;19.034;2023-04-24T07:20:33;5.03;;;3.75;;
41799;SDS011;27468;47.460;19.034;2023-04-24T07:22:59;5.82;;;3.60;;
41799;SDS011;27468;47.460;19.034;2023-04-24T07:25:24;4.97;;;3.28;;
41799;SDS011;27468;47.460;19.034;2023-04-24T07:27:50;4.93;;;3.15;;
41799;SDS011;27468;47.460;19.034;2023-04-24T07:30:15;5.28;;;3.08;;
41799;SDS011;27468;47.460;19.034;2023-04-24T07:32:41;5.47;;;3.60;;
41799;SDS011;27468;47.460;19.034;2023-04-24T07:35:06;6.05;;;3.45;;
41799;SDS011;27468;47.460;19.034;2023-04-24T07:37:32;5.32;;;3.25;;
41799;SDS011;27468;47.460;19.034;2023-04-24T07:39:57;3.67;;;3.35;;
41799;SDS011;27468;47.460;19.034;2023-04-24T07:42:23;4.45;;;3.15;;
41799;SDS011;27468;47.460;19.034;2023-04-24T07:44:48;5.65;;;3.35;;
41799;SDS011;27468;47.460;19.034;2023-04-24T07:47:14;5.65;;;3.50;;
41799;SDS011;27468;47.460;19.034;2023-04-24T07:49:42;4.53;;;3.13;;
41799;SDS011;27468;47.460;19.034;2023-04-24T07:52:08;5.85;;;3.75;;
41799;SDS011;27468;47.460;19.034;2023-04-24T07:54:33;4.30;;;3.25;;
41799;SDS011;27468;47.460;19.034;2023-04-24T07:56:59;3.47;;;2.70;;
41799;SDS011;27468;47.460;19.034;2023-04-24T07:59:25;4.88;;;3.00;;
41799;SDS011;27468;47.460;19.034;2023-04-24T08:01:51;4.03;;;2.72;;
41799;SDS011;27468;47.460;19.034;2023-04-24T08:04:16;3.90;;;2.70;;
41799;SDS011;27468;47.460;19.034;2023-04-24T08:06:43;5.60;;;3.25;;
41799;SDS011;27468;47.460;19.034;2023-04-24T08:09:08;4.35;;;3.03;;
41799;SDS011;27468;47.460;19.034;2023-04-24T08:11:34;5.13;;;3.50;;
41799;SDS011;27468;47.460;19.034;2023-04-24T08:13:59;4.45;;;3.55;;
41799;SDS011;27468;47.460;19.034;2023-04-24T08:16:25;3.65;;;2.50;;
41799;SDS011;27468;47.460;19.034;2023-04-24T08:18:51;5.78;;;3.50;;
41799;SDS011;27468;47.460;19.034;2023-04-24T08:21:17;4.25;;;3.47;;
41799;SDS011;27468;47.460;19.034;2023-04-24T08:23:44;4.13;;;2.78;;
41799;SDS011;27468;47.460;19.034;2023-04-24T08:26:10;5.45;;;3.17;;
41799;SDS011;27468;47.460;19.034;2023-04-24T08:28:36;5.15;;;3.72;;
41799;SDS011;27468;47.460;19.034;2023-04-24T08:31:02;4.32;;;2.97;;
41799;SDS011;27468;47.460;19.034;2023-04-24T08:33:27;6.68;;;3.67;;
41799;SDS011;27468;47.460;19.034;2023-04-24T08:35:59;4.95;;;3.90;;
41799;SDS011;27468;47.460;19.034;2023-04-24T08:38:25;4.57;;;2.63;;
41799;SDS011;27468;47.460;19.034;2023-04-24T08:40:51;5.00;;;3.45;;
41799;SDS011;27468;47.460;19.034;2023-04-24T08:43:16;5.75;;;3.83;;
41799;SDS011;27468;47.460;19.034;2023-04-24T08:45:42;4.63;;;3.08;;
41799;SDS011;27468;47.460;19.034;2023-04-24T08:48:07;8.40;;;3.92;;
41799;SDS011;27468;47.460;19.034;2023-04-24T08:50:34;4.35;;;2.92;;
41799;SDS011;27468;47.460;19.034;2023-04-24T08:53:00;6.25;;;3.75;;
41799;SDS011;27468;47.460;19.034;2023-04-24T08:55:26;4.40;;;3.38;;
41799;SDS011;27468;47.460;19.034;2023-04-24T08:57:55;4.47;;;2.92;;
41799;SDS011;27468;47.460;19.034;2023-04-24T09:00:20;4.65;;;3.08;;
41799;SDS011;27468;47.460;19.034;2023-04-24T09:02:47;3.83;;;2.92;;
41799;SDS011;27468;47.460;19.034;2023-04-24T09:05:15;4.22;;;2.95;;
41799;SDS011;27468;47.460;19.034;2023-04-24T09:07:44;4.65;;;3.05;;
41799;SDS011;27468;47.460;19.034;2023-04-24T09:10:14;5.20;;;3.03;;
41799;SDS011;27468;47.460;19.034;2023-04-24T09:12:41;5.28;;;3.40;;
41799;SDS011;27468;47.460;19.034;2023-04-24T09:15:07;4.05;;;3.17;;
41799;SDS011;27468;47.460;19.034;2023-04-24T09:17:33;4.18;;;3.10;;
41799;SDS011;27468;47.460;19.034;2023-04-24T09:19:59;3.95;;;2.97;;
41799;SDS011;27468;47.460;19.034;2023-04-24T09:22:24;3.90;;;2.90;;
41799;SDS011;27468;47.460;19.034;2023-04-24T09:24:59;3.97;;;2.85;;
41799;SDS011;27468;47.460;19.034;2023-04-24T09:27:29;4.93;;;2.70;;
41799;SDS011;27468;47.460;19.034;2023-04-24T09:29:56;5.00;;;3.35;;
41799;SDS011;27468;47.460;19.034;2023-04-24T09:32:22;4.43;;;3.03;;
41799;SDS011;27468;47.460;19.034;2023-04-24T09:35:04;3.95;;;2.33;;
41799;SDS011;27468;47.460;19.034;2023-04-24T09:37:37;3.92;;;3.17;;
41799;SDS011;27468;47.460;19.034;2023-04-24T09:40:17;3.92;;;3.00;;
41799;SDS011;27468;47.460;19.034;2023-04-24T09:42:54;4.63;;;3.40;;
41799;SDS011;27468;47.460;19.034;2023-04-24T09:45:21;4.07;;;2.75;;
41799;SDS011;27468;47.460;19.034;2023-04-24T09:47:51;4.50;;;2.92;;
41799;SDS011;27468;47.460;19.034;2023-04-24T09:50:17;3.78;;;3.13;;
41799;SDS011;27468;47.460;19.034;2023-04-24T09:52:47;5.05;;;3.03;;
41799;SDS011;27468;47.460;19.034;2023-04-24T09:55:21;3.15;;;2.63;;
41799;SDS011;27468;47.460;19.034;2023-04-24T09:57:49;3.42;;;2.85;;
41799;SDS011;27468;47.460;19.034;2023-04-24T10:00:31;3.15;;;2.33;;
41799;SDS011;27468;47.460;19.034;2023-04-24T10:02:58;3.42;;;2.80;;
41799;SDS011;27468;47.460;19.034;2023-04-24T10:05:29;3.50;;;2.50;;
41799;SDS011;27468;47.460;19.034;2023-04-24T10:07:58;4.07;;;2.40;;
41799;SDS011;27468;47.460;19.034;2023-04-24T10:10:28;3.17;;;2.35;;
41799;SDS011;27468;47.460;19.034;2023-04-24T10:12:54;2.78;;;2.13;;
41799;SDS011;27468;47.460;19.034;2023-04-24T10:15:20;4.00;;;2.75;;
41799;SDS011;27468;47.460;19.034;2023-04-24T10:17:49;2.80;;;2.50;;
41799;SDS011;27468;47.460;19.034;2023-04-24T10:20:25;3.08;;;2.38;;
41799;SDS011;27468;47.460;19.034;2023-04-24T10:22:53;3.53;;;2.35;;
41799;SDS011;27468;47.460;19.034;2023-04-24T10:25:29;3.58;;;2.28;;
41799;SDS011;27468;47.460;19.034;2023-04-24T10:27:55;2.75;;;2.30;;
41799;SDS011;27468;47.460;19.034;2023-04-24T10:30:24;4.13;;;3.10;;
41799;SDS011;27468;47.460;19.034;2023-04-24T10:32:54;4.10;;;2.40;;
41799;SDS011;27468;47.460;19.034;2023-04-24T10:35:20;3.53;;;2.53;;
41799;SDS011;27468;47.460;19.034;2023-04-24T10:37:51;4.82;;;3.05;;
41799;SDS011;27468;47.460;19.034;2023-04-24T10:40:29;5.03;;;3.10;;
41799;SDS011;27468;47.460;19.034;2023-04-24T10:42:57;4.32;;;3.10;;
41799;SDS011;27468;47.460;19.034;2023-04-24T10:45:23;3.30;;;2.42;;
41799;SDS011;27468;47.460;19.034;2023-04-24T10:48:05;4.78;;;3.13;;
41799;SDS011;27468;47.460;19.034;2023-04-24T10:50:45;3.47;;;2.97;;
41799;SDS011;27468;47.460;19.034;2023-04-24T10:53:15;4.60;;;3.35;;
41799;SDS011;27468;47.460;19.034;2023-04-24T10:55:43;3.60;;;2.40;;
41799;SDS011;27468;47.460;19.034;2023-04-24T10:58:09;4.45;;;3.45;;
41799;SDS011;27468;47.460;19.034;2023-04-24T11:00:38;4.10;;;2.80;;
41799;SDS011;27468;47.460;19.034;2023-04-24T11:03:24;3.05;;;2.63;;
41799;SDS011;27468;47.460;19.034;2023-04-24T11:08:28;5.90;;;3.28;;
41799;SDS011;27468;47.460;19.034;2023-04-24T11:11:16;4.70;;;2.72;;
41799;SDS011;27468;47.460;19.034;2023-04-24T11:21:47;3.65;;;2.90;;
41799;SDS011;27468;47.460;19.034;2023-04-24T11:24:29;3.95;;;2.80;;
41799;SDS011;27468;47.460;19.034;2023-04-24T11:29:45;4.60;;;2.95;;
41799;SDS011;27468;47.460;19.034;2023-04-24T11:32:33;4.10;;;3.03;;
41799;SDS011;27468;47.460;19.034;2023-04-24T11:35:00;4.03;;;2.90;;
41799;SDS011;27468;47.460;19.034;2023-04-24T11:37:39;3.88;;;3.15;;
41799;SDS011;27468;47.460;19.034;2023-04-24T11:40:06;3.70;;;2.72;;
41799;SDS011;27468;47.460;19.034;2023-04-24T11:42:36;5.20;;;3.58;;
41799;SDS011;27468;47.460;19.034;2023-04-24T11:45:10;4.75;;;3.25;;
41799;SDS011;27468;47.460;19.034;2023-04-24T11:47:38;3.78;;;3.08;;
41799;SDS011;27468;47.460;19.034;2023-04-24T11:50:04;4.25;;;3.28;;
41799;SDS011;27468;47.460;19.034;2023-04-24T11:52:33;11.93;;;3.70;;
41799;SDS011;27468;47.460;19.034;2023-04-24T11:55:02;4.50;;;3.20;;
41799;SDS011;27468;47.460;19.034;2023-04-24T11:57:28;4.53;;;3.03;;
41799;SDS011;27468;47.460;19.034;2023-04-24T11:59:59;3.72;;;2.95;;
41799;SDS011;27468;47.460;19.034;2023-04-24T12:02:25;4.05;;;2.70;;
41799;SDS011;27468;47.460;19.034;2023-04-24T12:04:52;4.18;;;3.22;;
41799;SDS011;27468;47.460;19.034;2023-04-24T12:07:19;3.15;;;2.53;;
41799;SDS011;27468;47.460;19.034;2023-04-24T12:09:49;4.15;;;2.92;;
41799;SDS011;27468;47.460;19.034;2023-04-24T12:12:20;5.55;;;3.17;;
41799;SDS011;27468;47.460;19.034;2023-04-24T12:14:49;6.22;;;3.85;;
41799;SDS011;27468;47.460;19.034;2023-04-24T12:19:48;4.53;;;3.38;;
41799;SDS011;27468;47.460;19.034;2023-04-24T12:22:14;4.03;;;2.75;;
41799;SDS011;27468;47.460;19.034;2023-04-24T12:24:59;5.50;;;3.40;;
41799;SDS011;27468;47.460;19.034;2023-04-24T12:27:29;6.15;;;3.90;;
41799;SDS011;27468;47.460;19.034;2023-04-24T12:29:56;5.07;;;3.78;;
41799;SDS011;27468;47.460;19.034;2023-04-24T12:32:23;4.50;;;3.30;;
41799;SDS011;27468;47.460;19.034;2023-04-24T12:34:50;4.50;;;3.15;;
41799;SDS011;27468;47.460;19.034;2023-04-24T12:37:19;4.32;;;3.08;;
41799;SDS011;27468;47.460;19.034;2023-04-24T12:40:30;4.20;;;2.70;;
41799;SDS011;27468;47.460;19.034;2023-04-24T12:45:09;3.65;;;2.47;;
41799;SDS011;27468;47.460;19.034;2023-04-24T12:47:37;4.35;;;3.00;;
41799;SDS011;27468;47.460;19.034;2023-04-24T12:50:03;4.38;;;2.83;;
41799;SDS011;27468;47.460;19.034;2023-04-24T12:52:30;4.30;;;2.85;;
41799;SDS011;27468;47.460;19.034;2023-04-24T12:54:56;3.40;;;2.30;;
41799;SDS011;27468;47.460;19.034;2023-04-24T12:57:23;4.78;;;2.70;;
41799;SDS011;27468;47.460;19.034;2023-04-24T12:59:50;4.63;;;2.30;;
41799;SDS011;27468;47.460;19.034;2023-04-24T13:02:17;3.63;;;2.45;;
41799;SDS011;27468;47.460;19.034;2023-04-24T13:04:48;3.80;;;2.13;;
41799;SDS011;27468;47.460;19.034;2023-04-24T13:07:14;2.70;;;2.00;;
41799;SDS011;27468;47.460;19.034;2023-04-24T13:09:40;3.30;;;2.10;;
41799;SDS011;27468;47.460;19.034;2023-04-24T13:12:07;3.42;;;2.63;;
41799;SDS011;27468;47.460;19.034;2023-04-24T13:14:33;3.67;;;2.15;;
41799;SDS011;27468;47.460;19.034;2023-04-24T13:16:59;2.58;;;2.00;;
41799;SDS011;27468;47.460;19.034;2023-04-24T13:19:25;2.95;;;1.65;;
41799;SDS011;27468;47.460;19.034;2023-04-24T13:21:51;1.90;;;1.60;;
41799;SDS011;27468;47.460;19.034;2023-04-24T13:24:17;1.95;;;1.30;;
41799;SDS011;27468;47.460;19.034;2023-04-24T13:26:43;2.38;;;1.60;;
41799;SDS011;27468;47.460;19.034;2023-04-24T13:29:08;4.13;;;1.83;;
41799;SDS011;27468;47.460;19.034;2023-04-24T13:31:34;2.35;;;1.73;;
41799;SDS011;27468;47.460;19.034;2023-04-24T13:34:00;1.85;;;1.27;;
41799;SDS011;27468;47.460;19.034;2023-04-24T13:36:25;1.80;;;1.27;;
41799;SDS011;27468;47.460;19.034;2023-04-24T13:38:51;1.30;;;1.10;;
41799;SDS011;27468;47.460;19.034;2023-04-24T13:41:16;2.10;;;1.48;;
41799;SDS011;27468;47.460;19.034;2023-04-24T13:43:41;1.98;;;1.45;;
41799;SDS011;27468;47.460;19.034;2023-04-24T13:46:07;1.75;;;1.33;;
41799;SDS011;27468;47.460;19.034;2023-04-24T13:48:33;2.47;;;1.77;;
41799;SDS011;27468;47.460;19.034;2023-04-24T13:50:59;2.55;;;1.35;;
41799;SDS011;27468;47.460;19.034;2023-04-24T13:53:25;1.48;;;1.25;;
41799;SDS011;27468;47.460;19.034;2023-04-24T13:55:50;1.67;;;1.50;;
41799;SDS011;27468;47.460;19.034;2023-04-24T13:58:16;1.58;;;1.48;;
41799;SDS011;27468;47.460;19.034;2023-04-24T14:00:41;2.80;;;1.50;;
41799;SDS011;27468;47.460;19.034;2023-04-24T14:03:07;1.50;;;1.30;;
41799;SDS011;27468;47.460;19.034;2023-04-24T14:05:32;2.05;;;1.58;;
41799;SDS011;27468;47.460;19.034;2023-04-24T14:07:57;2.85;;;2.00;;
41799;SDS011;27468;47.460;19.034;2023-04-24T14:10:23;2.88;;;1.83;;
41799;SDS011;27468;47.460;19.034;2023-04-24T14:12:48;2.40;;;1.73;;
41799;SDS011;27468;47.460;19.034;2023-04-24T14:15:14;3.22;;;1.80;;
41799;SDS011;27468;47.460;19.034;2023-04-24T14:17:40;3.17;;;1.70;;
41799;SDS011;27468;47.460;19.034;2023-04-24T14:20:05;4.28;;;2.45;;
41799;SDS011;27468;47.460;19.034;2023-04-24T14:22:32;2.65;;;1.58;;
41799;SDS011;27468;47.460;19.034;2023-04-24T14:24:58;4.43;;;1.80;;
41799;SDS011;27468;47.460;19.034;2023-04-24T14:27:24;2.72;;;2.20;;
41799;SDS011;27468;47.460;19.034;2023-04-24T14:29:50;3.45;;;2.15;;
41799;SDS011;27468;47.460;19.034;2023-04-24T14:32:17;2.30;;;1.70;;
41799;SDS011;27468;47.460;19.034;2023-04-24T14:34:42;3.80;;;2.22;;
41799;SDS011;27468;47.460;19.034;2023-04-24T14:37:08;2.63;;;1.90;;
41799;SDS011;27468;47.460;19.034;2023-04-24T14:39:33;5.10;;;2.50;;
41799;SDS011;27468;47.460;19.034;2023-04-24T14:41:59;3.53;;;1.92;;
41799;SDS011;27468;47.460;19.034;2023-04-24T14:44:26;4.60;;;2.42;;
41799;SDS011;27468;47.460;19.034;2023-04-24T14:46:51;3.53;;;2.67;;
41799;SDS011;27468;47.460;19.034;2023-04-24T14:49:16;2.65;;;2.05;;